Time;durP1;ratioP1;P1;durP2;ratioP2;P2;SDS_P1;SDS_P2;PMS_P1;PMS_P2;Temp;Humidity;BMP_temperature;BMP_pressure;BME280_temperature;BME280_humidity;BME280_pressure;Samples;Min_cycle;Max_cycle;Signal;HPM_P1;HPM_P2
2023/06/05 00:01:13;;;;;;;1.90;1.27;;;24.50;44.40;;;;;;5035207;28;20044;-65
2023/06/05 00:03:39;;;;;;;1.90;1.40;;;24.50;44.40;;;;;;5036839;28;20123;-65
2023/06/05 00:06:06;;;;;;;2.33;1.50;;;24.50;44.50;;;;;;5036727;28;20184;-65
2023/06/05 00:08:32;;;;;;;2.25;1.40;;;24.50;44.50;;;;;;5035053;28;20026;-64
2023/06/05 00:10:57;;;;;;;1.98;1.40;;;24.50;44.50;;;;;;5038642;28;20028;-65
2023/06/05 00:13:23;;;;;;;1.70;1.20;;;24.50;44.60;;;;;;5039753;28;20514;-65
2023/06/05 00:15:49;;;;;;;1.98;1.42;;;24.50;44.50;;;;;;5037891;28;20025;-65
2023/06/05 00:18:15;;;;;;;1.42;1.10;;;24.50;44.60;;;;;;5036627;28;20506;-65
2023/06/05 00:20:41;;;;;;;1.80;1.35;;;24.50;44.50;;;;;;5037764;28;20215;-65
2023/06/05 00:23:08;;;;;;;2.00;1.30;;;24.50;44.60;;;;;;5035016;28;20065;-65
2023/06/05 00:25:33;;;;;;;2.42;1.33;;;24.50;44.60;;;;;;5019731;28;20037;-64
2023/06/05 00:27:59;;;;;;;2.03;1.30;;;24.50;44.70;;;;;;5040324;28;20056;-64
2023/06/05 00:30:25;;;;;;;1.90;1.30;;;24.50;45.20;;;;;;5036493;28;20094;-65
2023/06/05 00:32:51;;;;;;;2.00;1.40;;;24.50;44.70;;;;;;5019924;28;20033;-64
2023/06/05 00:35:16;;;;;;;1.75;1.33;;;24.50;44.70;;;;;;5031821;28;20033;-65
2023/06/05 00:37:43;;;;;;;2.30;1.55;;;24.50;44.70;;;;;;5039698;28;20031;-65
2023/06/05 00:40:09;;;;;;;2.00;1.30;;;24.50;44.60;;;;;;5036692;28;20473;-65
2023/06/05 00:42:35;;;;;;;1.60;1.20;;;24.50;44.60;;;;;;5038464;28;20025;-64
2023/06/05 00:45:00;;;;;;;2.00;1.38;;;24.50;44.60;;;;;;5036009;28;20045;-64
2023/06/05 00:47:26;;;;;;;2.03;1.40;;;24.50;44.60;;;;;;5037249;28;20489;-65
2023/06/05 00:49:52;;;;;;;2.03;1.40;;;24.50;44.60;;;;;;5032132;28;20104;-65
2023/06/05 00:52:18;;;;;;;2.17;1.45;;;24.50;44.60;;;;;;5032979;28;20503;-65
2023/06/05 00:54:44;;;;;;;2.15;1.50;;;24.50;44.60;;;;;;5037520;28;20134;-64
2023/06/05 00:57:11;;;;;;;1.92;1.40;;;24.50;44.60;;;;;;5038554;28;20080;-65
2023/06/05 00:59:36;;;;;;;1.80;1.40;;;24.50;44.60;;;;;;5033042;28;20467;-64
2023/06/05 01:02:02;;;;;;;2.03;1.42;;;24.50;44.50;;;;;;5018535;28;20029;-64
2023/06/05 01:04:32;;;;;;;1.98;1.38;;;24.50;44.50;;;;;;5036651;28;20029;-65
2023/06/05 01:06:59;;;;;;;1.95;1.25;;;24.50;44.60;;;;;;5021752;28;20063;-65
2023/06/05 01:09:25;;;;;;;1.95;1.30;;;24.50;44.60;;;;;;5033446;28;20036;-65
2023/06/05 01:12:07;;;;;;;1.58;1.20;;;24.50;44.60;;;;;;5037473;28;20547;-65
2023/06/05 01:14:36;;;;;;;1.90;1.40;;;24.50;44.60;;;;;;5039420;28;20068;-64
2023/06/05 01:17:02;;;;;;;;;;;24.50;44.50;;;;;;5037632;28;20516;-65
2023/06/05 01:19:31;;;;;;;1.73;1.30;;;24.50;44.60;;;;;;5034324;28;19952;-64
2023/06/05 01:21:57;;;;;;;1.75;1.30;;;24.40;44.50;;;;;;5033871;28;20127;-65
2023/06/05 01:24:25;;;;;;;1.92;1.30;;;24.50;44.60;;;;;;5003847;28;20037;-65
2023/06/05 01:27:02;;;;;;;1.70;1.30;;;24.40;44.50;;;;;;5020029;28;20136;-65
2023/06/05 01:29:41;;;;;;;1.88;1.30;;;24.40;44.50;;;;;;5034740;28;20076;-65
2023/06/05 01:32:16;;;;;;;1.83;1.27;;;24.40;44.50;;;;;;5037612;28;20040;-65
2023/06/05 01:34:43;;;;;;;1.80;1.20;;;24.40;44.50;;;;;;5018687;28;20025;-65
2023/06/05 01:37:18;;;;;;;1.60;1.10;;;24.40;44.50;;;;;;5035893;28;20413;-64
2023/06/05 01:39:46;;;;;;;1.65;1.10;;;24.40;44.50;;;;;;5033297;28;20029;-65
2023/06/05 01:42:13;;;;;;;2.03;1.33;;;24.40;44.50;;;;;;5034015;28;20072;-65
2023/06/05 01:44:41;;;;;;;2.13;1.40;;;24.40;44.50;;;;;;5034987;28;20041;-65
2023/06/05 01:47:07;;;;;;;1.60;1.27;;;24.40;44.50;;;;;;5004821;28;20057;-65
2023/06/05 01:49:34;;;;;;;1.70;1.20;;;24.40;44.50;;;;;;5036083;28;20083;-65
2023/06/05 01:51:59;;;;;;;2.20;1.50;;;24.40;44.50;;;;;;5035390;28;20127;-65
2023/06/05 01:54:26;;;;;;;2.17;1.38;;;24.40;44.50;;;;;;5036349;28;20116;-65
2023/06/05 01:56:52;;;;;;;1.70;1.35;;;24.40;44.40;;;;;;5033089;28;20088;-65
2023/06/05 01:59:19;;;;;;;1.27;1.05;;;24.40;44.50;;;;;;5034955;28;20472;-65
2023/06/05 02:01:45;;;;;;;1.55;1.20;;;24.40;44.40;;;;;;5004069;28;20034;-65
2023/06/05 02:04:11;;;;;;;1.80;1.30;;;24.40;44.40;;;;;;5020437;28;20532;-65
2023/06/05 02:06:42;;;;;;;1.75;1.20;;;24.40;44.40;;;;;;5034406;28;20105;-65
2023/06/05 02:09:12;;;;;;;1.95;1.30;;;24.40;44.50;;;;;;5034179;28;20018;-65
2023/06/05 02:11:39;;;;;;;1.58;1.23;;;24.40;44.40;;;;;;5017641;28;20032;-65
2023/06/05 02:14:08;;;;;;;1.63;1.27;;;24.40;44.40;;;;;;5033044;28;20025;-64
2023/06/05 02:16:36;;;;;;;1.98;1.23;;;24.40;44.40;;;;;;5039550;28;20640;-65
2023/06/05 02:19:03;;;;;;;1.33;1.08;;;24.30;44.30;;;;;;5035250;28;20028;-65
2023/06/05 02:21:32;;;;;;;1.55;1.17;;;24.40;44.40;;;;;;5031373;28;20481;-65
2023/06/05 02:24:01;;;;;;;;;;;24.40;44.40;;;;;;5030219;28;20519;-64
2023/06/05 02:26:27;;;;;;;1.77;1.20;;;24.40;44.40;;;;;;5036072;28;19919;-65
2023/06/05 02:28:54;;;;;;;1.63;1.27;;;24.30;44.30;;;;;;5032611;28;20057;-65
2023/06/05 02:31:24;;;;;;;1.75;1.30;;;24.30;44.30;;;;;;5034977;28;20021;-65
2023/06/05 02:33:54;;;;;;;1.70;1.20;;;24.30;44.30;;;;;;5037043;28;20550;-65
2023/06/05 02:36:21;;;;;;;1.40;1.08;;;24.40;44.40;;;;;;5033425;28;20033;-65
2023/06/05 02:38:49;;;;;;;1.80;1.25;;;24.30;44.30;;;;;;5019169;28;20030;-65
2023/06/05 02:41:16;;;;;;;1.23;1.00;;;24.30;44.30;;;;;;5033812;28;20021;-65
2023/06/05 02:43:41;;;;;;;1.27;1.00;;;24.30;44.30;;;;;;5031353;28;20099;-65
2023/06/05 02:46:07;;;;;;;1.83;1.30;;;24.40;44.30;;;;;;5031673;28;20472;-65
2023/06/05 02:48:33;;;;;;;1.83;1.25;;;24.30;44.30;;;;;;5034076;28;20025;-65
2023/06/05 02:50:58;;;;;;;1.67;1.23;;;24.30;44.30;;;;;;5019206;28;20468;-65
2023/06/05 02:53:24;;;;;;;1.52;1.10;;;24.30;44.30;;;;;;5035358;28;20029;-65
2023/06/05 02:55:49;;;;;;;1.75;1.20;;;24.30;44.30;;;;;;5018165;28;20034;-65
2023/06/05 02:58:17;;;;;;;1.58;1.10;;;24.30;44.30;;;;;;5032212;28;20026;-65
2023/06/05 03:00:44;;;;;;;1.17;1.08;;;24.30;44.30;;;;;;5032265;28;20029;-65
2023/06/05 03:03:11;;;;;;;2.05;1.35;;;24.30;44.20;;;;;;5034594;28;20529;-64
2023/06/05 03:05:36;;;;;;;1.58;1.10;;;24.30;44.30;;;;;;5035777;28;20030;-64
2023/06/05 03:08:03;;;;;;;1.48;1.13;;;24.30;44.20;;;;;;5033674;28;20029;-65
2023/06/05 03:10:29;;;;;;;1.73;1.25;;;24.30;44.30;;;;;;5033457;28;20017;-65
2023/06/05 03:12:55;;;;;;;1.70;1.20;;;24.30;44.30;;;;;;5037200;28;20027;-64
2023/06/05 03:15:20;;;;;;;1.50;1.20;;;24.30;44.30;;;;;;5034422;28;20031;-64
2023/06/05 03:17:47;;;;;;;1.48;1.17;;;24.30;44.20;;;;;;5031679;28;20029;-65
2023/06/05 03:20:13;;;;;;;1.40;1.10;;;24.30;44.30;;;;;;5035659;28;20049;-65
2023/06/05 03:22:39;;;;;;;1.65;1.27;;;24.30;44.30;;;;;;5036186;28;20092;-65
2023/06/05 03:25:05;;;;;;;1.60;1.17;;;24.30;44.20;;;;;;5033214;28;20025;-65
2023/06/05 03:27:31;;;;;;;1.67;1.20;;;24.30;44.20;;;;;;5017767;28;20369;-64
2023/06/05 03:29:58;;;;;;;1.65;1.23;;;24.30;44.20;;;;;;5032026;28;20033;-65
2023/06/05 03:32:24;;;;;;;1.55;1.10;;;24.30;44.20;;;;;;5031700;28;20127;-65
2023/06/05 03:34:50;;;;;;;1.35;1.08;;;24.30;44.30;;;;;;5036717;28;20028;-64
2023/06/05 03:37:15;;;;;;;1.40;1.13;;;24.30;44.30;;;;;;5035356;28;20100;-64
2023/06/05 03:39:41;;;;;;;1.73;1.23;;;24.30;44.30;;;;;;5005997;28;20040;-65
2023/06/05 03:42:09;;;;;;;1.80;1.20;;;24.30;44.20;;;;;;5039411;28;20037;-65
2023/06/05 03:44:34;;;;;;;1.65;1.17;;;24.30;44.20;;;;;;5035230;28;20036;-64
2023/06/05 03:47:00;;;;;;;1.42;1.15;;;24.30;44.20;;;;;;5023826;28;20029;-64
2023/06/05 03:49:28;;;;;;;1.63;1.20;;;24.20;44.20;;;;;;5039744;28;20395;-65
2023/06/05 03:52:00;;;;;;;1.40;1.00;;;24.20;44.20;;;;;;5039579;28;20345;-65
2023/06/05 03:54:32;;;;;;;1.70;1.20;;;24.20;44.20;;;;;;5037538;28;20025;-65
2023/06/05 03:57:00;;;;;;;1.77;1.30;;;24.20;44.20;;;;;;5035508;28;20104;-65
2023/06/05 03:59:27;;;;;;;1.92;1.40;;;24.20;44.20;;;;;;5036540;28;20021;-65
2023/06/05 04:01:55;;;;;;;1.15;1.00;;;24.20;44.70;;;;;;5038264;28;20452;-65
2023/06/05 04:04:21;;;;;;;1.30;1.00;;;24.20;44.20;;;;;;5040188;28;20032;-64
2023/06/05 04:06:47;;;;;;;1.27;1.00;;;24.20;44.20;;;;;;5039386;28;20029;-65
2023/06/05 04:09:12;;;;;;;1.85;1.35;;;24.20;44.20;;;;;;5037904;28;20420;-65
2023/06/05 04:11:42;;;;;;;1.63;1.20;;;24.20;44.20;;;;;;5037700;28;20607;-65
2023/06/05 04:14:09;;;;;;;1.52;1.20;;;24.20;44.20;;;;;;5004919;28;20505;-64
2023/06/05 04:16:39;;;;;;;1.50;1.10;;;24.20;44.20;;;;;;5020970;28;20098;-64
2023/06/05 04:19:09;;;;;;;1.70;1.23;;;24.20;44.20;;;;;;5037469;28;20025;-65
2023/06/05 04:21:37;;;;;;;1.70;1.20;;;24.20;44.20;;;;;;5035209;28;20025;-65
2023/06/05 04:24:06;;;;;;;1.58;1.10;;;24.20;44.20;;;;;;5032451;28;20022;-65
2023/06/05 04:26:36;;;;;;;;;;;24.20;44.20;;;;;;5019076;28;20084;-65
2023/06/05 04:29:03;;;;;;;1.25;1.00;;;24.10;44.10;;;;;;5036442;28;20276;-65
2023/06/05 04:31:32;;;;;;;1.38;1.10;;;24.20;44.20;;;;;;5038736;28;20020;-65
2023/06/05 04:33:58;;;;;;;1.40;1.00;;;24.10;44.10;;;;;;5038983;28;20060;-65
2023/06/05 04:36:27;;;;;;;1.25;1.10;;;24.10;44.10;;;;;;5039144;28;20508;-64
2023/06/05 04:38:52;;;;;;;1.35;1.23;;;24.10;44.10;;;;;;5038578;28;20028;-65
2023/06/05 04:41:18;;;;;;;1.38;0.95;;;24.10;44.10;;;;;;5036396;28;20034;-65
2023/06/05 04:43:44;;;;;;;1.55;1.10;;;24.10;44.20;;;;;;5034763;28;20052;-65
2023/06/05 04:46:09;;;;;;;1.65;1.20;;;24.10;44.20;;;;;;5037529;28;20172;-65
2023/06/05 04:48:36;;;;;;;1.63;1.10;;;24.10;44.20;;;;;;5035232;28;20021;-65
2023/06/05 04:51:02;;;;;;;1.50;1.10;;;24.10;44.20;;;;;;5033745;28;20017;-65
2023/06/05 04:53:33;;;;;;;1.58;1.00;;;24.10;44.20;;;;;;5038698;28;20354;-65
2023/06/05 04:56:00;;;;;;;1.40;1.10;;;24.10;44.20;;;;;;5037456;28;20109;-65
2023/06/05 04:58:26;;;;;;;1.70;1.20;;;24.10;44.20;;;;;;5039233;28;20029;-64
2023/06/05 05:00:51;;;;;;;1.67;1.02;;;24.10;44.20;;;;;;5037018;28;20499;-65
2023/06/05 05:03:17;;;;;;;1.40;1.10;;;24.10;44.20;;;;;;5035722;28;20037;-65
2023/06/05 05:05:43;;;;;;;1.55;1.17;;;24.10;44.20;;;;;;5036677;28;20362;-65
2023/06/05 05:08:09;;;;;;;1.35;1.02;;;24.10;44.20;;;;;;5037621;28;20029;-65
2023/06/05 05:10:34;;;;;;;1.80;1.13;;;24.10;44.20;;;;;;5036909;28;20039;-65
2023/06/05 05:13:03;;;;;;;1.75;1.10;;;24.10;44.20;;;;;;5039981;28;20033;-65
2023/06/05 05:15:28;;;;;;;1.55;1.20;;;24.10;44.20;;;;;;5036758;28;20021;-65
2023/06/05 05:17:56;;;;;;;1.52;1.10;;;24.10;44.20;;;;;;5038072;28;20037;-65
2023/06/05 05:20:22;;;;;;;1.52;1.10;;;24.10;44.20;;;;;;5036313;28;20512;-64
2023/06/05 05:22:48;;;;;;;1.20;1.10;;;24.10;44.20;;;;;;5037056;28;20018;-65
2023/06/05 05:25:13;;;;;;;1.40;1.00;;;24.10;44.20;;;;;;5035591;28;20073;-65
2023/06/05 05:27:39;;;;;;;1.27;1.02;;;24.10;44.20;;;;;;5035833;28;20702;-65
2023/06/05 05:30:07;;;;;;;1.35;1.10;;;24.10;44.20;;;;;;5038323;28;20425;-64
2023/06/05 05:32:32;;;;;;;1.77;1.10;;;24.10;44.30;;;;;;5035254;28;20018;-65
2023/06/05 05:34:58;;;;;;;1.80;1.30;;;24.10;44.30;;;;;;5037932;28;20026;-65
2023/06/05 05:37:25;;;;;;;1.30;1.00;;;24.00;44.20;;;;;;5031117;28;20101;-65
2023/06/05 05:39:51;;;;;;;1.73;1.10;;;24.00;44.20;;;;;;5019120;28;20040;-65
2023/06/05 05:42:17;;;;;;;1.40;1.10;;;24.00;44.20;;;;;;5016998;28;20107;-65
2023/06/05 05:44:44;;;;;;;1.45;1.02;;;24.10;44.30;;;;;;5039320;28;20195;-64
2023/06/05 05:47:10;;;;;;;2.03;1.30;;;24.00;44.20;;;;;;5033537;28;20499;-64
2023/06/05 05:49:36;;;;;;;1.45;1.10;;;24.00;44.70;;;;;;5038008;28;20353;-65
2023/06/05 05:52:02;;;;;;;1.48;1.10;;;24.00;44.20;;;;;;5034744;28;20022;-65
2023/06/05 05:54:28;;;;;;;1.35;1.00;;;24.10;44.30;;;;;;5036838;28;20035;-65
2023/06/05 05:56:54;;;;;;;1.70;1.10;;;24.00;44.20;;;;;;5029540;28;20534;-64
2023/06/05 05:59:20;;;;;;;1.55;1.15;;;24.00;44.20;;;;;;5015051;28;20419;-64
2023/06/05 06:01:45;;;;;;;1.70;1.20;;;24.00;44.20;;;;;;5037143;28;20033;-64
2023/06/05 06:04:11;;;;;;;1.38;1.00;;;24.00;44.20;;;;;;5036142;28;20064;-64
2023/06/05 06:06:39;;;;;;;1.40;1.10;;;24.00;44.30;;;;;;5032622;28;20095;-64
2023/06/05 06:09:07;;;;;;;1.35;1.10;;;24.00;44.20;;;;;;5035819;28;20036;-65
2023/06/05 06:11:34;;;;;;;1.60;1.10;;;24.00;44.30;;;;;;5032736;28;20520;-64
2023/06/05 06:14:00;;;;;;;1.67;1.20;;;24.00;44.30;;;;;;5020225;28;20523;-64
2023/06/05 06:16:25;;;;;;;1.50;1.10;;;24.00;44.30;;;;;;5019853;28;20030;-64
2023/06/05 06:18:52;;;;;;;1.48;1.10;;;24.00;44.30;;;;;;5034062;28;20033;-64
2023/06/05 06:21:18;;;;;;;1.10;1.00;;;24.00;44.30;;;;;;5033762;28;20025;-65
2023/06/05 06:23:44;;;;;;;1.42;1.10;;;24.00;44.30;;;;;;5034808;28;20501;-64
2023/06/05 06:26:11;;;;;;;1.67;1.20;;;24.00;44.30;;;;;;5035088;28;20041;-64
2023/06/05 06:28:37;;;;;;;1.88;1.20;;;24.00;44.30;;;;;;5035753;28;20043;-64
2023/06/05 06:31:03;;;;;;;1.52;1.15;;;24.00;44.30;;;;;;5037622;28;20056;-65
2023/06/05 06:33:29;;;;;;;1.75;1.02;;;23.90;44.20;;;;;;5035983;28;20022;-64
2023/06/05 06:35:58;;;;;;;1.52;1.13;;;23.90;44.20;;;;;;5035313;28;20492;-64
2023/06/05 06:38:29;;;;;;;1.80;1.20;;;23.90;44.20;;;;;;5031929;28;20167;-64
2023/06/05 06:40:56;;;;;;;1.65;1.10;;;23.90;44.20;;;;;;5033040;28;20102;-63
2023/06/05 06:43:21;;;;;;;1.23;1.05;;;23.90;44.20;;;;;;5019496;28;20032;-64
2023/06/05 06:45:49;;;;;;;1.60;1.20;;;23.90;44.20;;;;;;5037060;28;20038;-65
2023/06/05 06:48:16;;;;;;;1.75;1.25;;;24.00;44.30;;;;;;5033371;28;20028;-64
2023/06/05 06:50:42;;;;;;;1.40;1.10;;;23.90;44.20;;;;;;5033223;28;20022;-64
2023/06/05 06:53:08;;;;;;;1.50;1.20;;;23.90;44.20;;;;;;5035686;28;20029;-64
2023/06/05 06:55:34;;;;;;;1.88;1.30;;;23.90;44.20;;;;;;5019514;28;20052;-64
2023/06/05 06:58:00;;;;;;;1.35;1.10;;;23.90;44.20;;;;;;5016924;28;20032;-65
2023/06/05 07:00:25;;;;;;;1.40;1.17;;;23.90;44.20;;;;;;5004517;28;20120;-64
2023/06/05 07:02:51;;;;;;;1.50;1.08;;;23.90;44.20;;;;;;5030656;28;20448;-64
2023/06/05 07:05:19;;;;;;;1.60;1.15;;;23.90;44.20;;;;;;5035968;28;20060;-64
2023/06/05 07:07:45;;;;;;;1.67;1.30;;;23.90;44.20;;;;;;5002324;28;20037;-64
2023/06/05 07:10:11;;;;;;;1.65;1.20;;;23.90;44.20;;;;;;5035296;28;20397;-64
2023/06/05 07:12:36;;;;;;;1.30;1.10;;;23.90;44.20;;;;;;5032775;28;20036;-64
2023/06/05 07:15:02;;;;;;;1.63;1.10;;;23.90;44.20;;;;;;5031738;28;20033;-64
2023/06/05 07:17:30;;;;;;;1.50;1.02;;;23.90;44.20;;;;;;5033178;28;20088;-64
2023/06/05 07:19:56;;;;;;;2.35;1.10;;;23.90;44.20;;;;;;5033350;28;20056;-64
2023/06/05 07:22:24;;;;;;;1.70;1.20;;;23.90;44.20;;;;;;5034780;28;20033;-65
2023/06/05 07:24:50;;;;;;;1.33;1.10;;;23.90;44.20;;;;;;5032262;28;20030;-64
2023/06/05 07:27:16;;;;;;;1.80;1.20;;;23.90;44.20;;;;;;5015201;28;20503;-64
2023/06/05 07:29:42;;;;;;;1.33;0.93;;;23.90;44.20;;;;;;5037918;28;20068;-64
2023/06/05 07:32:08;;;;;;;2.13;1.20;;;23.90;44.20;;;;;;5035375;28;20025;-64
2023/06/05 07:34:36;;;;;;;1.60;1.20;;;23.90;44.20;;;;;;5032062;28;20101;-64
2023/06/05 07:37:02;;;;;;;1.52;1.20;;;23.90;44.30;;;;;;5034713;28;20052;-64
2023/06/05 07:39:28;;;;;;;1.15;1.05;;;23.90;44.20;;;;;;5035219;28;20064;-64
2023/06/05 07:41:54;;;;;;;1.50;1.10;;;23.90;44.20;;;;;;5018810;28;20041;-64
2023/06/05 07:44:21;;;;;;;1.70;1.20;;;23.90;44.70;;;;;;5036040;28;20148;-64
2023/06/05 07:46:48;;;;;;;1.58;1.20;;;23.90;44.20;;;;;;5036310;28;20801;-64
2023/06/05 07:49:15;;;;;;;1.60;1.17;;;23.90;44.20;;;;;;5033447;28;20090;-63
2023/06/05 07:51:42;;;;;;;1.63;1.17;;;23.90;44.20;;;;;;5034087;28;20548;-64
2023/06/05 07:54:10;;;;;;;1.73;1.20;;;23.90;44.30;;;;;;5017154;28;20086;-64
2023/06/05 07:56:36;;;;;;;1.40;1.10;;;23.90;44.30;;;;;;5030406;28;20033;-64
2023/06/05 07:59:03;;;;;;;1.65;1.20;;;23.90;44.30;;;;;;5028660;28;20029;-64
2023/06/05 08:01:36;;;;;;;1.42;1.08;;;23.90;44.30;;;;;;5036516;28;20030;-64
2023/06/05 08:04:11;;;;;;;1.50;1.05;;;23.90;44.30;;;;;;5033697;28;20605;-64
2023/06/05 08:06:41;;;;;;;1.70;1.20;;;23.90;44.30;;;;;;5033416;28;20353;-64
2023/06/05 08:09:09;;;;;;;2.13;1.30;;;23.90;44.30;;;;;;5032295;28;20045;-64
2023/06/05 08:11:37;;;;;;;1.58;1.30;;;23.90;44.30;;;;;;5029536;28;20030;-64
2023/06/05 08:14:03;;;;;;;1.73;1.20;;;23.90;44.30;;;;;;5035071;28;20025;-64
2023/06/05 08:16:29;;;;;;;2.00;1.20;;;23.90;44.30;;;;;;5029850;28;20045;-64
2023/06/05 08:18:55;;;;;;;1.65;1.15;;;23.90;44.30;;;;;;5015802;28;20075;-64
2023/06/05 08:21:20;;;;;;;1.23;1.05;;;23.90;44.30;;;;;;5032636;28;20542;-64
2023/06/05 08:23:46;;;;;;;1.60;1.20;;;23.90;44.30;;;;;;5032338;28;20105;-64
2023/06/05 08:26:12;;;;;;;1.40;1.20;;;23.90;44.30;;;;;;5037069;28;20029;-65
2023/06/05 08:28:39;;;;;;;1.73;1.15;;;23.90;44.30;;;;;;5036323;28;20462;-64
2023/06/05 08:31:05;;;;;;;1.70;1.15;;;23.90;44.30;;;;;;5037824;28;20032;-64
2023/06/05 08:33:33;;;;;;;1.90;1.20;;;23.90;44.30;;;;;;5036216;28;20475;-64
2023/06/05 08:35:58;;;;;;;1.90;1.38;;;23.90;44.30;;;;;;5038292;28;20485;-63
2023/06/05 08:38:24;;;;;;;1.75;1.20;;;23.90;44.30;;;;;;5034273;28;20166;-63
2023/06/05 08:40:59;;;;;;;1.50;1.10;;;23.90;44.30;;;;;;5033009;28;20713;-64
2023/06/05 08:43:25;;;;;;;1.75;1.17;;;23.90;44.30;;;;;;5037113;28;20025;-64
2023/06/05 08:45:52;;;;;;;1.73;1.20;;;23.90;44.30;;;;;;5039221;28;20047;-64
2023/06/05 08:48:20;;;;;;;1.90;1.20;;;23.90;44.40;;;;;;5038396;28;20071;-64
2023/06/05 08:50:47;;;;;;;1.73;1.23;;;23.90;44.40;;;;;;5040828;28;20033;-65
2023/06/05 08:53:16;;;;;;;1.30;1.08;;;23.90;44.40;;;;;;5039881;28;20132;-63
2023/06/05 08:55:44;;;;;;;1.63;1.20;;;23.90;44.40;;;;;;5040454;28;20460;-65
2023/06/05 08:58:12;;;;;;;1.90;1.25;;;23.90;44.40;;;;;;5034286;28;20025;-63
2023/06/05 09:00:38;;;;;;;1.48;1.10;;;23.90;44.40;;;;;;5034959;28;20044;-64
2023/06/05 09:03:04;;;;;;;1.40;1.10;;;23.90;44.40;;;;;;5019084;28;20473;-63
2023/06/05 09:05:29;;;;;;;1.75;1.10;;;23.90;44.40;;;;;;5032480;28;20444;-64
2023/06/05 09:07:56;;;;;;;1.63;1.25;;;23.90;44.40;;;;;;5039200;28;20029;-64
2023/06/05 09:10:27;;;;;;;1.70;1.08;;;23.90;44.40;;;;;;5038096;28;20028;-64
2023/06/05 09:12:57;;;;;;;1.38;1.10;;;23.90;44.40;;;;;;5035637;28;20025;-63
2023/06/05 09:15:28;;;;;;;1.85;1.27;;;23.90;44.40;;;;;;5035039;28;20462;-63
2023/06/05 09:18:09;;;;;;;1.58;1.17;;;23.90;44.40;;;;;;5036464;28;20021;-63
2023/06/05 09:20:40;;;;;;;1.90;1.30;;;23.90;44.40;;;;;;5032451;28;20489;-64
2023/06/05 09:23:27;;;;;;;1.90;1.30;;;23.90;44.40;;;;;;5020786;28;20025;-64
2023/06/05 09:25:54;;;;;;;1.48;1.10;;;23.90;44.40;;;;;;5038536;28;20025;-64
2023/06/05 09:28:20;;;;;;;1.85;1.30;;;23.90;44.40;;;;;;5037317;28;20021;-64
2023/06/05 09:30:57;;;;;;;1.48;1.20;;;23.90;44.40;;;;;;5035096;28;20048;-63
2023/06/05 09:33:24;;;;;;;1.58;1.17;;;23.90;44.50;;;;;;5034399;28;20045;-64
2023/06/05 09:36:08;;;;;;;1.65;1.15;;;23.90;44.50;;;;;;5035472;28;20053;-64
2023/06/05 09:38:34;;;;;;;1.90;1.33;;;23.90;44.50;;;;;;5020511;28;20447;-64
2023/06/05 09:41:11;;;;;;;1.77;1.30;;;23.90;44.50;;;;;;5034504;28;20029;-64
2023/06/05 09:43:38;;;;;;;1.98;1.30;;;23.90;44.50;;;;;;5036221;28;20076;-64
2023/06/05 09:46:14;;;;;;;1.35;1.00;;;23.90;44.50;;;;;;5020177;28;20380;-64
2023/06/05 09:48:41;;;;;;;1.98;1.15;;;23.90;44.50;;;;;;5036065;28;20025;-64
2023/06/05 09:51:15;;;;;;;1.55;1.13;;;23.90;44.50;;;;;;5035875;28;20377;-63
2023/06/05 09:53:48;;;;;;;1.85;1.20;;;23.90;44.50;;;;;;5032732;28;20025;-64
2023/06/05 09:56:15;;;;;;;1.70;1.20;;;23.90;44.50;;;;;;5036577;28;20040;-64
2023/06/05 09:58:49;;;;;;;1.92;1.40;;;23.90;44.50;;;;;;5035295;28;20408;-64
2023/06/05 10:01:22;;;;;;;2.15;1.33;;;23.90;44.50;;;;;;5032696;28;20112;-64
2023/06/05 10:03:57;;;;;;;2.00;1.30;;;23.90;44.50;;;;;;5032281;28;20465;-63
2023/06/05 10:06:27;;;;;;;2.00;1.27;;;23.90;44.50;;;;;;5002862;28;20151;-64
2023/06/05 10:08:55;;;;;;;1.92;1.40;;;23.90;44.50;;;;;;5034005;28;20029;-64
2023/06/05 10:11:22;;;;;;;1.98;1.30;;;23.90;44.50;;;;;;5016201;28;20026;-64
2023/06/05 10:13:49;;;;;;;2.20;1.50;;;23.90;45.10;;;;;;5034060;28;20480;-64
2023/06/05 10:16:15;;;;;;;1.63;1.30;;;23.90;44.50;;;;;;5019580;28;20029;-64
2023/06/05 10:18:41;;;;;;;2.25;1.40;;;23.90;44.50;;;;;;5032593;28;20593;-64
2023/06/05 10:21:08;;;;;;;1.55;1.20;;;23.90;44.50;;;;;;5036206;28;20030;-64
2023/06/05 10:23:35;;;;;;;1.48;1.20;;;23.90;44.60;;;;;;5034209;28;20474;-64
2023/06/05 10:26:07;;;;;;;2.13;1.50;;;23.90;44.50;;;;;;5017006;28;20514;-64
2023/06/05 10:28:47;;;;;;;1.75;1.40;;;23.90;44.50;;;;;;5032948;28;20433;-64
2023/06/05 10:31:45;;;;;;;1.50;1.20;;;23.90;44.60;;;;;;5036267;28;20052;-64
2023/06/05 10:34:22;;;;;;;2.22;1.25;;;23.90;44.60;;;;;;5034926;28;20083;-64
2023/06/05 10:36:59;;;;;;;2.20;1.48;;;23.90;44.60;;;;;;5036692;28;20037;-64
2023/06/05 10:39:28;;;;;;;1.92;1.17;;;23.90;44.60;;;;;;5036495;28;20029;-64
2023/06/05 10:41:54;;;;;;;1.70;1.30;;;23.90;44.60;;;;;;5032788;28;20270;-64
2023/06/05 10:44:39;;;;;;;2.00;1.25;;;23.90;44.60;;;;;;5029452;28;20073;-63
2023/06/05 10:47:33;;;;;;;2.10;1.23;;;23.90;44.60;;;;;;5018439;28;20038;-63
2023/06/05 10:50:18;;;;;;;1.63;1.20;;;23.90;44.60;;;;;;5017945;28;20041;-64
2023/06/05 10:52:48;;;;;;;1.77;1.20;;;23.90;44.60;;;;;;5005664;28;20393;-64
2023/06/05 10:55:17;;;;;;;2.00;1.40;;;23.90;44.60;;;;;;5035427;28;20033;-64
2023/06/05 10:58:08;;;;;;;1.92;1.35;;;23.90;44.60;;;;;;5034420;28;20033;-64
2023/06/05 11:00:34;;;;;;;2.03;1.40;;;23.90;44.60;;;;;;5023232;28;20443;-64
2023/06/05 11:03:01;;;;;;;2.00;1.38;;;23.90;44.60;;;;;;5037046;28;20626;-64
2023/06/05 11:05:27;;;;;;;2.20;1.40;;;23.90;44.60;;;;;;5018750;28;20445;-64
2023/06/05 11:08:13;;;;;;;2.08;1.58;;;23.90;44.60;;;;;;5036257;28;20032;-63
2023/06/05 11:11:06;;;;;;;2.40;1.40;;;23.90;44.60;;;;;;5035093;28;20087;-64
2023/06/05 11:13:54;;;;;;;1.90;1.30;;;23.90;44.60;;;;;;5035764;28;20469;-64
2023/06/05 11:16:31;;;;;;;1.98;1.50;;;23.90;44.60;;;;;;5035497;28;20104;-64
2023/06/05 11:19:36;;;;;;;2.05;1.40;;;23.90;44.60;;;;;;5015159;28;20032;-64
2023/06/05 11:22:02;;;;;;;2.38;1.38;;;23.90;44.60;;;;;;4937987;29;20035;-64
2023/06/05 11:24:28;;;;;;;1.80;1.20;;;23.90;44.70;;;;;;5014913;28;20496;-64
2023/06/05 11:26:54;;;;;;;2.20;1.50;;;23.90;44.70;;;;;;5028140;28;20041;-64
2023/06/05 11:29:20;;;;;;;1.73;1.30;;;23.90;44.60;;;;;;5032402;28;20040;-64
2023/06/05 11:31:45;;;;;;;2.03;1.50;;;23.90;44.70;;;;;;5032940;28;20026;-64
2023/06/05 11:34:13;;;;;;;1.95;1.30;;;23.90;44.60;;;;;;5031994;28;20026;-64
2023/06/05 11:36:39;;;;;;;1.92;1.35;;;24.00;44.70;;;;;;5034442;28;20030;-64
2023/06/05 11:39:05;;;;;;;1.85;1.38;;;23.90;44.70;;;;;;5036578;28;20037;-64
2023/06/05 11:41:31;;;;;;;1.80;1.30;;;23.90;44.70;;;;;;5002559;28;20034;-64
2023/06/05 11:43:56;;;;;;;2.67;1.48;;;24.00;44.70;;;;;;5030872;28;20021;-64
2023/06/05 11:46:40;;;;;;;2.25;1.63;;;23.90;44.70;;;;;;5034772;28;20277;-63
2023/06/05 11:49:06;;;;;;;2.03;1.50;;;23.90;44.70;;;;;;5016596;28;20419;-64
2023/06/05 11:51:36;;;;;;;1.90;1.40;;;23.90;44.70;;;;;;5019996;28;20029;-64
2023/06/05 11:54:04;;;;;;;2.08;1.60;;;23.90;44.70;;;;;;5031118;28;20025;-64
2023/06/05 11:56:31;;;;;;;2.00;1.48;;;23.90;44.70;;;;;;5033928;28;20160;-64
2023/06/05 11:58:58;;;;;;;1.95;1.40;;;23.90;44.70;;;;;;5031223;28;20029;-64
2023/06/05 12:01:31;;;;;;;1.90;1.30;;;23.90;44.70;;;;;;5036050;28;20040;-63
2023/06/05 12:04:05;;;;;;;1.85;1.38;;;24.00;44.80;;;;;;5038523;28;20040;-63
2023/06/05 12:06:31;;;;;;;1.95;1.50;;;24.00;44.80;;;;;;5035658;28;20029;-64
2023/06/05 12:09:11;;;;;;;2.10;1.38;;;24.00;44.80;;;;;;5020854;28;20021;-64
2023/06/05 12:11:38;;;;;;;1.42;1.33;;;24.00;44.80;;;;;;5032213;28;20033;-64
2023/06/05 12:14:04;;;;;;;2.00;1.48;;;24.00;44.80;;;;;;5038690;28;20038;-64
2023/06/05 12:16:34;;;;;;;1.90;1.40;;;24.00;44.80;;;;;;5021767;28;20025;-64
2023/06/05 12:19:14;;;;;;;2.28;1.30;;;24.00;44.70;;;;;;5038426;28;20032;-63
2023/06/05 12:21:40;;;;;;;2.30;1.63;;;24.00;44.80;;;;;;5036549;28;20033;-64
2023/06/05 12:24:06;;;;;;;1.80;1.40;;;24.00;44.70;;;;;;5020392;28;20052;-64
2023/06/05 12:26:53;;;;;;;2.08;1.50;;;24.00;44.70;;;;;;5037365;28;20021;-64
2023/06/05 12:29:21;;;;;;;1.95;1.40;;;24.00;44.70;;;;;;5033841;28;20031;-64
2023/06/05 12:31:46;;;;;;;1.95;1.50;;;24.00;44.80;;;;;;5033724;28;20028;-64
2023/06/05 12:34:12;;;;;;;2.22;1.55;;;24.00;44.70;;;;;;5039463;28;20540;-64
2023/06/05 12:36:40;;;;;;;1.95;1.38;;;24.00;44.70;;;;;;5016176;28;20350;-64
2023/06/05 12:39:07;;;;;;;2.08;1.48;;;24.00;44.70;;;;;;5037867;28;20029;-64
2023/06/05 12:41:34;;;;;;;2.13;1.50;;;24.00;44.80;;;;;;5035440;28;20100;-64
2023/06/05 12:44:04;;;;;;;2.13;1.58;;;24.00;44.70;;;;;;5033834;28;20541;-64
2023/06/05 12:46:31;;;;;;;2.03;1.40;;;24.00;44.70;;;;;;5037009;28;20034;-64
2023/06/05 12:48:58;;;;;;;1.98;1.45;;;24.00;44.70;;;;;;5037879;28;20067;-63
2023/06/05 12:51:27;;;;;;;1.98;1.40;;;24.00;44.70;;;;;;5035106;28;20521;-64
2023/06/05 12:53:54;;;;;;;1.90;1.40;;;24.00;44.70;;;;;;5027189;28;20030;-64